Time;durP1;ratioP1;P1;durP2;ratioP2;P2;SDS_P1;SDS_P2;PMS_P1;PMS_P2;Temp;Humidity;BMP_temperature;BMP_pressure;BME280_temperature;BME280_humidity;BME280_pressure;Samples;Min_cycle;Max_cycle;Signal;HPM_P1;HPM_P2
2023/07/17 00:02:24;;;;;;;8.65;2.42;;;16.90;99.90;;;;;;5005687;28;40029;-76
2023/07/17 00:04:50;;;;;;;10.38;2.60;;;17.00;99.90;;;;;;5007369;28;36273;-77
2023/07/17 00:07:17;;;;;;;5.72;1.98;;;16.90;99.90;;;;;;5007849;28;39693;-77
2023/07/17 00:09:43;;;;;;;11.50;2.30;;;16.90;99.90;;;;;;5009497;28;39278;-76
2023/07/17 00:12:09;;;;;;;9.98;2.60;;;16.90;99.90;;;;;;5007374;28;38976;-76
2023/07/17 00:14:35;;;;;;;7.53;2.30;;;16.90;99.90;;;;;;5006984;28;37969;-77
2023/07/17 00:17:01;;;;;;;7.28;2.72;;;16.90;99.90;;;;;;5026625;28;40360;-76
2023/07/17 00:19:27;;;;;;;8.25;2.10;;;16.90;99.90;;;;;;5008333;28;37562;-77
2023/07/17 00:21:54;;;;;;;6.03;2.50;;;16.90;99.90;;;;;;5009235;28;38072;-77
2023/07/17 00:24:20;;;;;;;10.43;2.17;;;16.90;99.90;;;;;;5007830;28;37444;-76
2023/07/17 00:26:46;;;;;;;9.07;2.42;;;16.90;99.90;;;;;;5006921;28;38063;-76
2023/07/17 00:29:24;;;;;;;11.40;2.70;;;16.90;99.90;;;;;;5007490;28;40299;-77
2023/07/17 00:31:51;;;;;;;10.43;2.03;;;16.80;99.90;;;;;;5016863;28;39025;-77
2023/07/17 00:34:21;;;;;;;7.30;2.30;;;16.80;99.90;;;;;;5007410;28;38843;-77
2023/07/17 00:36:47;;;;;;;9.00;2.03;;;16.70;99.90;;;;;;5008364;28;39789;-77
2023/07/17 00:39:14;;;;;;;11.23;2.55;;;16.70;99.90;;;;;;5008127;28;39089;-77
2023/07/17 00:41:40;;;;;;;8.13;2.15;;;16.70;99.90;;;;;;5008159;28;39222;-77
2023/07/17 00:44:06;;;;;;;8.30;2.47;;;16.70;99.90;;;;;;5008082;28;37696;-77
2023/07/17 00:46:34;;;;;;;7.38;1.92;;;16.60;99.90;;;;;;5002249;28;39850;-77
2023/07/17 00:49:02;;;;;;;9.88;2.20;;;16.60;99.90;;;;;;5009602;28;38712;-77
2023/07/17 00:51:28;;;;;;;8.50;2.25;;;16.50;99.90;;;;;;5010509;28;49039;-77
2023/07/17 00:53:55;;;;;;;7.47;2.10;;;16.60;99.90;;;;;;5007963;28;37963;-77
2023/07/17 00:56:21;;;;;;;7.55;2.17;;;16.50;99.90;;;;;;5009948;28;38774;-76
2023/07/17 00:58:47;;;;;;;11.57;2.72;;;16.50;99.90;;;;;;5013154;28;40029;-79
2023/07/17 01:03:54;;;;;;;10.27;2.10;;;16.50;99.90;;;;;;5047069;22;21327;-83
2023/07/17 01:06:20;;;;;;;10.23;2.58;;;16.50;99.90;;;;;;5023106;28;37945;-83
2023/07/17 01:08:46;;;;;;;8.02;2.80;;;16.40;99.90;;;;;;5025051;28;38677;-81
2023/07/17 01:11:13;;;;;;;9.60;2.75;;;16.40;99.90;;;;;;5041327;28;38538;-82
2023/07/17 01:13:44;;;;;;;8.85;2.92;;;16.40;99.90;;;;;;5026519;28;37406;-81
2023/07/17 01:16:10;;;;;;;9.20;2.63;;;16.40;99.90;;;;;;5025074;28;39336;-81
2023/07/17 01:18:36;;;;;;;8.15;2.30;;;16.30;99.90;;;;;;5025447;28;37593;-82
2023/07/17 01:21:05;;;;;;;7.70;2.63;;;16.40;99.90;;;;;;5025697;28;38147;-81
2023/07/17 01:23:32;;;;;;;9.02;3.45;;;16.30;99.90;;;;;;5022950;28;36198;-81
2023/07/17 01:25:59;;;;;;;11.02;2.78;;;16.30;99.90;;;;;;5027266;28;38948;-82
2023/07/17 01:28:25;;;;;;;10.80;3.28;;;16.30;99.90;;;;;;5024667;28;39126;-81
2023/07/17 01:30:52;;;;;;;10.55;3.25;;;16.20;99.90;;;;;;5038142;28;37042;-78
2023/07/17 01:33:18;;;;;;;9.38;2.53;;;16.20;99.90;;;;;;5024683;28;36588;-81
2023/07/17 01:35:45;;;;;;;8.88;3.20;;;16.20;99.90;;;;;;5025194;28;40189;-81
2023/07/17 01:38:11;;;;;;;11.70;4.50;;;16.20;99.90;;;;;;5024672;28;38764;-82
2023/07/17 01:40:37;;;;;;;14.80;3.15;;;16.20;99.90;;;;;;5024067;28;37061;-81
2023/07/17 01:43:03;;;;;;;9.45;2.97;;;16.20;99.90;;;;;;5024987;28;37607;-81
2023/07/17 01:45:29;;;;;;;12.00;3.30;;;16.10;99.90;;;;;;5025183;28;38066;-82
2023/07/17 01:47:55;;;;;;;10.52;3.08;;;16.10;99.90;;;;;;5030255;28;40025;-81
2023/07/17 01:50:21;;;;;;;12.50;3.63;;;16.10;99.90;;;;;;5029179;28;37341;-81
2023/07/17 01:52:47;;;;;;;9.98;3.30;;;16.00;99.90;;;;;;5030350;28;37726;-82
2023/07/17 01:55:13;;;;;;;9.73;3.55;;;16.00;99.90;;;;;;5030225;28;38913;-81
2023/07/17 01:57:39;;;;;;;8.48;3.42;;;16.00;99.90;;;;;;5036298;28;38519;-82
2023/07/17 02:00:07;;;;;;;11.43;4.13;;;16.00;99.90;;;;;;5028617;28;37986;-81
2023/07/17 02:02:33;;;;;;;9.77;3.25;;;16.00;99.90;;;;;;5030047;28;36103;-81
2023/07/17 02:04:59;;;;;;;11.45;3.53;;;16.00;99.90;;;;;;5028795;28;37845;-81
2023/07/17 02:07:25;;;;;;;10.88;4.00;;;16.00;99.90;;;;;;5027747;28;38333;-81
2023/07/17 02:09:52;;;;;;;11.75;4.20;;;16.00;99.90;;;;;;5051214;28;38023;-81
2023/07/17 02:12:18;;;;;;;9.10;3.67;;;15.90;99.90;;;;;;5027447;28;37459;-81
2023/07/17 02:14:44;;;;;;;12.32;4.18;;;15.90;99.90;;;;;;5028642;28;38936;-82
2023/07/17 02:17:11;;;;;;;12.00;3.45;;;15.90;99.90;;;;;;5027428;28;39208;-81
2023/07/17 02:19:37;;;;;;;12.15;3.95;;;15.90;99.90;;;;;;5030205;28;39048;-82
2023/07/17 02:22:03;;;;;;;10.25;3.58;;;15.80;99.90;;;;;;5044357;28;36435;-81
2023/07/17 02:24:30;;;;;;;12.88;4.13;;;15.80;99.90;;;;;;5028351;28;39169;-82
2023/07/17 02:26:58;;;;;;;10.55;4.55;;;15.80;99.90;;;;;;5029202;28;38295;-81
2023/07/17 02:29:25;;;;;;;14.88;3.88;;;15.80;99.90;;;;;;5027919;28;37004;-80
2023/07/17 02:31:51;;;;;;;13.02;5.03;;;15.80;99.90;;;;;;5030530;28;37437;-82
2023/07/17 02:34:17;;;;;;;14.15;4.50;;;15.80;99.90;;;;;;5027586;28;37904;-81
2023/07/17 02:36:43;;;;;;;11.57;4.78;;;15.80;99.90;;;;;;5027877;28;37530;-81
2023/07/17 02:39:09;;;;;;;12.15;4.40;;;15.80;99.90;;;;;;5029172;28;39044;-82
2023/07/17 02:41:36;;;;;;;15.13;4.43;;;15.80;99.90;;;;;;5027557;28;36557;-81
2023/07/17 02:44:02;;;;;;;11.43;3.97;;;15.80;99.90;;;;;;5029820;28;40450;-81
2023/07/17 02:46:28;;;;;;;13.68;4.85;;;15.70;99.90;;;;;;5029495;28;38042;-82
2023/07/17 02:48:54;;;;;;;12.43;4.38;;;15.70;99.90;;;;;;5031411;28;38269;-82
2023/07/17 02:51:20;;;;;;;17.08;4.95;;;15.70;99.90;;;;;;5027904;28;38126;-82
2023/07/17 02:53:46;;;;;;;14.95;5.93;;;15.70;99.90;;;;;;5045166;28;37847;-82
2023/07/17 02:56:12;;;;;;;13.75;4.72;;;15.70;99.90;;;;;;5028359;28;38714;-82
2023/07/17 02:58:42;;;;;;;12.13;4.32;;;15.70;99.90;;;;;;5026213;28;38680;-82
2023/07/17 03:01:11;;;;;;;15.13;4.68;;;15.70;99.90;;;;;;5035191;28;36178;-82
2023/07/17 03:03:37;;;;;;;15.30;5.18;;;15.60;99.90;;;;;;5029296;28;38801;-82
2023/07/17 03:06:04;;;;;;;15.90;5.40;;;15.60;99.90;;;;;;5044519;28;37463;-82
2023/07/17 03:08:30;;;;;;;21.52;5.13;;;15.60;99.90;;;;;;5028836;28;37596;-82
2023/07/17 03:10:56;;;;;;;14.80;5.25;;;15.60;99.90;;;;;;5028809;28;36276;-83
2023/07/17 03:13:23;;;;;;;18.20;5.70;;;15.70;99.90;;;;;;5027778;28;37767;-81
2023/07/17 03:15:49;;;;;;;15.20;5.43;;;15.70;99.90;;;;;;5044823;28;38630;-82
2023/07/17 03:18:15;;;;;;;17.33;5.57;;;15.60;99.90;;;;;;5044077;28;36818;-82
2023/07/17 03:20:44;;;;;;;16.20;5.55;;;15.60;99.90;;;;;;5026828;28;36213;-83
2023/07/17 03:23:11;;;;;;;15.52;5.63;;;15.70;99.90;;;;;;5026915;28;38095;-83
2023/07/17 03:25:40;;;;;;;15.95;4.97;;;15.70;99.90;;;;;;5027930;28;37792;-83
2023/07/17 03:28:06;;;;;;;15.80;5.35;;;15.70;99.90;;;;;;5043980;28;38321;-82
2023/07/17 03:30:32;;;;;;;15.48;5.65;;;15.70;99.90;;;;;;5026723;28;36253;-82
2023/07/17 03:32:58;;;;;;;14.00;5.25;;;15.70;99.90;;;;;;5030108;28;38882;-82
2023/07/17 03:35:25;;;;;;;15.98;5.63;;;15.70;99.90;;;;;;5043119;28;37148;-83
2023/07/17 03:37:51;;;;;;;12.05;5.90;;;15.70;99.90;;;;;;5028474;28;39933;-81
2023/07/17 03:40:17;;;;;;;16.15;6.40;;;15.70;99.90;;;;;;5044803;28;37191;-83
2023/07/17 03:42:43;;;;;;;19.25;6.00;;;15.70;99.90;;;;;;5044238;28;38621;-82
2023/07/17 03:45:09;;;;;;;18.92;6.68;;;15.70;99.90;;;;;;5024250;28;37310;-82
2023/07/17 03:47:35;;;;;;;14.70;5.82;;;15.70;99.90;;;;;;5028285;28;37236;-82
2023/07/17 03:50:02;;;;;;;17.98;6.72;;;15.70;99.90;;;;;;5026654;28;37105;-81
2023/07/17 03:52:28;;;;;;;17.88;6.55;;;15.70;99.90;;;;;;5024562;28;38418;-82
2023/07/17 03:54:54;;;;;;;16.38;6.65;;;15.70;99.90;;;;;;5027453;28;37172;-82
2023/07/17 03:57:21;;;;;;;17.38;6.72;;;15.70;99.90;;;;;;5028158;28;37636;-82
2023/07/17 03:59:52;;;;;;;19.40;7.70;;;15.60;99.90;;;;;;5027072;28;37012;-83
2023/07/17 04:02:18;;;;;;;15.35;6.88;;;15.70;99.90;;;;;;5026780;28;38221;-82
2023/07/17 04:04:45;;;;;;;15.52;6.63;;;15.60;99.90;;;;;;5027589;28;38903;-81
2023/07/17 04:07:12;;;;;;;17.10;6.97;;;15.70;99.90;;;;;;5027174;28;38910;-82
2023/07/17 04:09:38;;;;;;;15.10;6.50;;;15.70;99.90;;;;;;5026742;28;35958;-82
2023/07/17 04:12:05;;;;;;;18.60;7.03;;;15.80;99.90;;;;;;5027011;28;38505;-81
2023/07/17 04:14:32;;;;;;;21.92;7.95;;;15.80;99.90;;;;;;5027952;28;38702;-82
2023/07/17 04:17:00;;;;;;;14.95;6.80;;;15.80;99.90;;;;;;5029981;28;20110;-82
2023/07/17 04:19:27;;;;;;;17.92;7.70;;;15.80;99.90;;;;;;5026206;28;36352;-82
2023/07/17 04:21:53;;;;;;;17.30;7.53;;;15.80;99.90;;;;;;5027266;28;37738;-82
2023/07/17 04:24:19;;;;;;;20.25;8.02;;;15.80;99.90;;;;;;5026567;28;38803;-84
2023/07/17 04:26:45;;;;;;;19.55;7.13;;;15.80;99.90;;;;;;5027570;28;38639;-81
2023/07/17 04:29:11;;;;;;;20.52;6.80;;;15.70;99.90;;;;;;5026509;28;36421;-82
2023/07/17 04:31:38;;;;;;;13.95;7.72;;;15.70;99.90;;;;;;5030568;28;39879;-81
2023/07/17 04:34:04;;;;;;;18.67;7.00;;;15.70;99.90;;;;;;5042972;28;37647;-82
2023/07/17 04:36:30;;;;;;;19.42;8.45;;;15.60;99.90;;;;;;5026112;28;38552;-82
2023/07/17 04:38:56;;;;;;;16.52;6.95;;;15.70;99.90;;;;;;5024006;28;36106;-82
2023/07/17 04:41:22;;;;;;;19.42;7.38;;;15.60;99.90;;;;;;5033945;28;38304;-82
2023/07/17 04:43:48;;;;;;;19.92;7.32;;;15.60;99.90;;;;;;5026470;28;37238;-83
2023/07/17 04:46:14;;;;;;;17.95;7.85;;;15.60;99.90;;;;;;5027743;28;38035;-83
2023/07/17 04:48:40;;;;;;;19.75;7.22;;;15.60;99.90;;;;;;5025476;28;36256;-82
2023/07/17 04:51:06;;;;;;;21.15;7.30;;;15.70;99.90;;;;;;5027728;28;39716;-82
2023/07/17 04:53:33;;;;;;;16.15;7.47;;;15.70;99.90;;;;;;5026085;28;38707;-82
2023/07/17 04:56:00;;;;;;;19.67;7.78;;;15.70;99.90;;;;;;5026236;28;38825;-82
2023/07/17 04:58:27;;;;;;;24.15;8.63;;;15.70;99.90;;;;;;5027561;28;37601;-82
2023/07/17 05:01:00;;;;;;;20.52;8.30;;;15.70;99.90;;;;;;5025980;28;38173;-82
2023/07/17 05:03:30;;;;;;;21.92;8.30;;;15.70;99.90;;;;;;5043195;28;37609;-81
2023/07/17 05:05:56;;;;;;;22.75;8.43;;;15.70;99.90;;;;;;5023251;28;38175;-82
2023/07/17 05:08:24;;;;;;;20.35;8.25;;;15.70;99.90;;;;;;5027293;28;36292;-82
2023/07/17 05:10:54;;;;;;;21.17;9.20;;;15.80;99.90;;;;;;5026419;28;38644;-82
2023/07/17 05:13:20;;;;;;;18.40;8.60;;;15.80;99.90;;;;;;5025236;28;38312;-82
2023/07/17 05:15:46;;;;;;;24.50;10.02;;;15.80;99.90;;;;;;5025284;28;39146;-81
2023/07/17 05:18:12;;;;;;;22.10;9.57;;;15.80;99.90;;;;;;5026131;28;36374;-82
2023/07/17 05:20:38;;;;;;;19.17;9.77;;;15.90;99.90;;;;;;5024847;28;37544;-82
2023/07/17 05:23:04;;;;;;;21.15;9.40;;;15.80;99.90;;;;;;5027794;28;38386;-82
2023/07/17 05:25:31;;;;;;;22.23;9.32;;;15.90;99.90;;;;;;5042537;28;37134;-82
2023/07/17 05:27:57;;;;;;;21.67;9.50;;;15.90;99.90;;;;;;5043791;28;36918;-82
2023/07/17 05:30:23;;;;;;;21.85;10.15;;;16.00;99.90;;;;;;5025960;28;38930;-82
2023/07/17 05:32:49;;;;;;;21.48;9.90;;;16.10;99.90;;;;;;5027610;28;38349;-82
2023/07/17 05:35:15;;;;;;;22.90;10.65;;;16.20;99.90;;;;;;5041698;28;37153;-82
2023/07/17 05:37:41;;;;;;;16.98;8.38;;;16.30;99.90;;;;;;5026410;28;37153;-82
2023/07/17 05:40:08;;;;;;;19.80;9.60;;;16.40;99.90;;;;;;5027642;28;38816;-82
2023/07/17 05:42:34;;;;;;;17.13;9.00;;;16.50;99.90;;;;;;5027764;28;38871;-82
2023/07/17 05:45:00;;;;;;;19.15;9.43;;;16.60;99.90;;;;;;5025814;28;37319;-83
2023/07/17 05:47:26;;;;;;;23.55;10.65;;;16.70;99.90;;;;;;5016345;28;36635;-82
2023/07/17 05:49:52;;;;;;;23.38;10.07;;;16.70;99.90;;;;;;5027789;28;40235;-82
2023/07/17 05:52:18;;;;;;;18.55;8.27;;;16.80;99.90;;;;;;5024988;28;38287;-81
2023/07/17 05:54:45;;;;;;;22.35;9.40;;;17.00;99.90;;;;;;5027022;28;37902;-82
2023/07/17 05:57:11;;;;;;;24.50;8.75;;;17.00;99.90;;;;;;5028551;28;37508;-82
2023/07/17 05:59:37;;;;;;;19.73;8.98;;;17.20;99.90;;;;;;5039773;28;37471;-82
2023/07/17 06:02:03;;;;;;;18.30;9.15;;;17.10;99.90;;;;;;5026130;28;38329;-82
2023/07/17 06:04:29;;;;;;;23.27;9.90;;;17.10;99.90;;;;;;5041673;28;37085;-82
2023/07/17 06:06:55;;;;;;;21.30;9.32;;;17.20;99.90;;;;;;5015948;28;37828;-83
2023/07/17 06:09:21;;;;;;;17.17;9.02;;;17.40;99.90;;;;;;5027453;28;37612;-82
2023/07/17 06:11:47;;;;;;;17.40;9.10;;;17.40;99.90;;;;;;5024607;28;38079;-82
2023/07/17 06:14:13;;;;;;;18.17;9.20;;;17.40;99.90;;;;;;5027632;28;38766;-82
2023/07/17 06:16:40;;;;;;;15.43;8.25;;;17.60;99.90;;;;;;5042175;28;36404;-83
2023/07/17 06:19:06;;;;;;;17.58;8.55;;;17.50;99.90;;;;;;5040625;28;37627;-82
2023/07/17 06:21:32;;;;;;;17.88;8.27;;;17.50;99.90;;;;;;5024874;28;37387;-82
2023/07/17 06:23:58;;;;;;;20.75;8.23;;;17.40;99.90;;;;;;5024645;28;37869;-82
2023/07/17 06:26:24;;;;;;;16.80;8.23;;;17.50;99.90;;;;;;5040238;28;37430;-82
2023/07/17 06:28:50;;;;;;;17.40;8.15;;;17.60;99.90;;;;;;5025064;28;37954;-81
2023/07/17 06:31:16;;;;;;;19.02;8.30;;;17.60;99.90;;;;;;5024759;28;37425;-82
2023/07/17 06:33:43;;;;;;;17.38;7.43;;;17.60;99.90;;;;;;5028411;28;37180;-82
2023/07/17 06:36:09;;;;;;;15.60;7.75;;;17.70;99.90;;;;;;5044199;28;36239;-82
2023/07/17 06:38:35;;;;;;;22.80;8.15;;;18.00;99.90;;;;;;5028178;28;37987;-82
2023/07/17 06:41:01;;;;;;;19.73;8.05;;;18.30;99.90;;;;;;5028226;28;38020;-81
2023/07/17 06:43:28;;;;;;;20.27;8.15;;;18.60;99.90;;;;;;5029189;28;37699;-82
2023/07/17 06:45:54;;;;;;;15.32;7.15;;;18.60;99.90;;;;;;5030859;28;37227;-81
2023/07/17 06:48:20;;;;;;;15.10;6.40;;;18.20;99.90;;;;;;5044617;28;37613;-81
2023/07/17 06:50:46;;;;;;;15.98;7.53;;;18.20;99.90;;;;;;5028730;28;38984;-82
2023/07/17 06:53:12;;;;;;;11.73;6.75;;;18.80;99.90;;;;;;5044323;28;37159;-81
2023/07/17 06:55:38;;;;;;;15.18;6.38;;;19.20;99.90;;;;;;5025460;28;37472;-81
2023/07/17 06:58:04;;;;;;;14.43;6.28;;;19.50;99.90;;;;;;5026134;28;37522;-81
2023/07/17 07:00:30;;;;;;;13.50;6.45;;;19.20;99.90;;;;;;5027164;28;37341;-81
2023/07/17 07:02:57;;;;;;;15.82;6.82;;;19.00;99.90;;;;;;5027953;28;36907;-81
2023/07/17 07:05:23;;;;;;;20.20;7.13;;;19.00;99.90;;;;;;5029891;28;37058;-81
2023/07/17 07:07:49;;;;;;;9.93;5.70;;;19.00;99.90;;;;;;5023619;28;39298;-81
2023/07/17 07:10:15;;;;;;;14.73;5.95;;;18.90;99.90;;;;;;5027105;28;37067;-80
2023/07/17 07:12:41;;;;;;;16.10;5.88;;;18.60;99.90;;;;;;5027629;28;37222;-81
2023/07/17 07:15:08;;;;;;;11.80;5.25;;;18.70;99.90;;;;;;5028280;28;38278;-81
2023/07/17 07:17:34;;;;;;;16.65;6.20;;;18.90;99.90;;;;;;5029368;28;39997;-81
2023/07/17 07:20:00;;;;;;;11.80;4.40;;;19.30;99.90;;;;;;5028138;28;37619;-81
2023/07/17 07:22:26;;;;;;;11.88;4.93;;;19.60;99.90;;;;;;5026846;28;36913;-81
2023/07/17 07:24:53;;;;;;;11.70;4.45;;;19.40;94.20;;;;;;5043219;28;36360;-81
2023/07/17 07:27:19;;;;;;;10.02;3.60;;;19.20;94.60;;;;;;5043251;28;38718;-82
2023/07/17 07:29:45;;;;;;;8.05;3.08;;;19.40;90.00;;;;;;5043316;28;37390;-82
2023/07/17 07:32:11;;;;;;;7.93;3.25;;;19.60;63.80;;;;;;5027772;28;37026;-81
2023/07/17 07:34:37;;;;;;;5.78;2.63;;;19.70;81.20;;;;;;5027691;28;38191;-81
2023/07/17 07:37:04;;;;;;;6.90;2.40;;;19.80;71.50;;;;;;5027668;28;40257;-80
2023/07/17 07:39:30;;;;;;;13.25;2.97;;;19.60;37.70;;;;;;5027657;28;37063;-80
2023/07/17 07:41:56;;;;;;;4.65;2.30;;;19.30;51.50;;;;;;5027356;28;38485;-80
2023/07/17 07:44:22;;;;;;;11.82;2.63;;;19.10;55.70;;;;;;5024253;28;37722;-79
2023/07/17 07:46:48;;;;;;;6.93;2.72;;;19.00;62.80;;;;;;5025194;28;38834;-81
2023/07/17 07:49:15;;;;;;;7.00;2.28;;;19.00;66.70;;;;;;5026830;28;37615;-79
2023/07/17 07:51:41;;;;;;;9.05;2.70;;;19.00;56.40;;;;;;5026171;28;37132;-80
2023/07/17 07:54:07;;;;;;;11.30;3.70;;;18.90;75.30;;;;;;5029209;28;37110;-79
2023/07/17 07:56:33;;;;;;;12.77;4.63;;;18.90;85.90;;;;;;5026239;28;38749;-80
2023/07/17 07:58:59;;;;;;;13.00;4.60;;;19.30;95.00;;;;;;5028968;28;40028;-80
2023/07/17 08:01:25;;;;;;;18.75;5.78;;;19.30;95.80;;;;;;5026530;28;37102;-80
2023/07/17 08:03:51;;;;;;;14.35;5.28;;;19.00;97.60;;;;;;5027812;28;37456;-80
2023/07/17 08:06:17;;;;;;;13.57;5.00;;;18.80;99.90;;;;;;5028186;28;39116;-79
2023/07/17 08:08:43;;;;;;;13.40;5.20;;;18.70;99.90;;;;;;5043611;28;38648;-80
2023/07/17 08:11:09;;;;;;;14.30;4.65;;;18.60;99.90;;;;;;5025954;28;38115;-79
2023/07/17 08:13:36;;;;;;;12.93;4.55;;;18.60;99.90;;;;;;5026840;28;36276;-84
2023/07/17 08:16:02;;;;;;;14.27;5.57;;;18.40;99.90;;;;;;5019184;28;37885;-85
2023/07/17 08:18:28;;;;;;;13.35;5.03;;;18.10;99.90;;;;;;5031283;28;37168;-86
2023/07/17 08:20:56;;;;;;;15.48;6.47;;;17.80;99.90;;;;;;5032890;28;39120;-85
2023/07/17 08:23:30;;;;;;;18.02;5.82;;;17.20;99.90;;;;;;5048433;28;36126;-86
2023/07/17 08:25:57;;;;;;;14.35;4.72;;;16.80;99.90;;;;;;5032465;28;39095;-87
2023/07/17 08:28:24;;;;;;;16.58;5.28;;;16.60;99.90;;;;;;5033462;28;39346;-86
2023/07/17 08:30:52;;;;;;;13.38;4.90;;;16.50;99.90;;;;;;5044029;28;37273;-86
2023/07/17 08:33:20;;;;;;;11.70;4.75;;;16.60;99.90;;;;;;5032383;28;37687;-86
2023/07/17 08:35:46;;;;;;;14.25;5.22;;;17.00;99.90;;;;;;5030669;28;38794;-87
2023/07/17 08:38:13;;;;;;;15.43;5.47;;;17.50;99.90;;;;;;5030335;28;39504;-87
2023/07/17 08:40:40;;;;;;;14.80;5.10;;;18.10;99.90;;;;;;5030623;28;38594;-86
2023/07/17 08:43:09;;;;;;;14.55;4.95;;;18.00;99.90;;;;;;5026143;28;36278;-87
2023/07/17 08:45:36;;;;;;;15.82;5.50;;;18.00;99.90;;;;;;5028446;28;38380;-84
2023/07/17 08:48:04;;;;;;;19.13;5.75;;;17.80;99.90;;;;;;5033429;28;37473;-83
2023/07/17 08:50:30;;;;;;;13.15;4.82;;;17.40;99.90;;;;;;5028621;28;36972;-85
2023/07/17 08:52:57;;;;;;;10.52;4.38;;;17.00;99.90;;;;;;5046364;28;36234;-84
2023/07/17 08:55:23;;;;;;;10.13;4.22;;;16.80;99.90;;;;;;5022732;28;37979;-87
2023/07/17 08:57:52;;;;;;;12.95;4.35;;;16.80;99.90;;;;;;5037187;28;37360;-86
2023/07/17 09:00:19;;;;;;;11.60;4.93;;;17.10;99.90;;;;;;5032634;28;37640;-87
2023/07/17 09:02:46;;;;;;;12.10;4.90;;;17.50;99.90;;;;;;5031382;28;48360;-87
2023/07/17 09:05:12;;;;;;;14.23;5.10;;;17.70;99.90;;;;;;5030226;28;37676;-87
2023/07/17 09:07:38;;;;;;;12.10;5.35;;;17.80;99.90;;;;;;5032102;28;38935;-88
2023/07/17 09:10:19;;;;;;;17.58;6.10;;;18.10;99.90;;;;;;5031536;28;38554;-89
2023/07/17 09:12:56;;;;;;;14.15;6.10;;;18.20;99.90;;;;;;5028999;28;48598;-87
2023/07/17 09:15:27;;;;;;;12.38;6.03;;;18.50;99.90;;;;;;5029423;28;38928;-85
2023/07/17 09:17:54;;;;;;;15.32;6.65;;;18.70;99.90;;;;;;5027851;28;38525;-88
2023/07/17 09:20:20;;;;;;;14.82;6.25;;;19.10;99.90;;;;;;5027703;28;36963;-87
2023/07/17 09:22:47;;;;;;;14.20;5.47;;;19.00;99.90;;;;;;5028810;28;37196;-90
2023/07/17 09:25:15;;;;;;;13.27;5.65;;;18.50;99.90;;;;;;5026844;28;37885;-87
2023/07/17 09:27:46;;;;;;;14.02;6.32;;;18.60;99.90;;;;;;5028893;28;38962;-87
2023/07/17 09:30:15;;;;;;;12.40;5.17;;;18.70;99.90;;;;;;5029611;28;39059;-87
2023/07/17 09:32:42;;;;;;;10.85;5.22;;;19.10;99.90;;;;;;5030185;28;36429;-87
2023/07/17 09:35:11;;;;;;;15.65;5.95;;;19.30;99.90;;;;;;5029686;28;39124;-88
2023/07/17 09:37:41;;;;;;;11.02;5.45;;;19.50;99.90;;;;;;5031679;28;38311;-88
2023/07/17 09:40:11;;;;;;;14.10;6.00;;;19.30;99.90;;;;;;5031008;28;37486;-90
2023/07/17 09:43:04;;;;;;;15.63;6.47;;;19.00;99.90;;;;;;5018269;28;36337;-89
2023/07/17 09:45:31;;;;;;;17.90;6.43;;;18.80;99.90;;;;;;5024309;28;47735;-87
2023/07/17 09:47:58;;;;;;;14.63;6.45;;;19.10;99.90;;;;;;5028621;28;37250;-89
2023/07/17 09:50:26;;;;;;;12.70;6.28;;;19.30;99.90;;;;;;5045435;28;37074;-83
2023/07/17 09:52:54;;;;;;;12.05;5.68;;;19.60;99.90;;;;;;5032258;28;38235;-84
2023/07/17 09:55:26;;;;;;;15.32;6.22;;;19.90;99.90;;;;;;5029998;28;37813;-87
2023/07/17 09:57:54;;;;;;;13.48;5.97;;;20.10;99.90;;;;;;5031680;28;37744;-86
2023/07/17 10:00:23;;;;;;;16.38;6.57;;;20.30;99.90;;;;;;5028305;28;37224;-84
2023/07/17 10:02:53;;;;;;;12.32;5.68;;;20.10;99.90;;;;;;5028823;28;38168;-85
2023/07/17 10:05:20;;;;;;;12.05;5.72;;;20.10;99.90;;;;;;5026298;28;38189;-85
2023/07/17 10:07:49;;;;;;;14.60;6.05;;;20.30;99.90;;;;;;5025649;28;38652;-84
2023/07/17 10:10:15;;;;;;;9.98;5.45;;;20.30;97.80;;;;;;5037707;28;36944;-85
2023/07/17 10:12:42;;;;;;;16.67;6.85;;;19.90;99.90;;;;;;5033579;28;38036;-85
2023/07/17 10:15:09;;;;;;;12.88;6.45;;;19.60;99.90;;;;;;5031333;28;37696;-86
2023/07/17 10:17:36;;;;;;;12.25;6.65;;;19.00;99.90;;;;;;5032794;28;38117;-88
2023/07/17 10:20:14;;;;;;;12.20;6.63;;;18.40;99.90;;;;;;5034109;28;36885;-88
2023/07/17 10:22:46;;;;;;;16.45;6.13;;;17.90;99.90;;;;;;5033865;28;49410;-86
2023/07/17 10:25:18;;;;;;;9.38;5.32;;;17.80;99.90;;;;;;5033270;28;37602;-86
2023/07/17 10:27:46;;;;;;;11.48;5.18;;;17.70;99.90;;;;;;5035780;28;38478;-86
2023/07/17 10:30:30;;;;;;;15.13;6.03;;;17.80;99.90;;;;;;5044588;28;38155;-87
2023/07/17 10:33:15;;;;;;;11.18;5.70;;;18.20;99.90;;;;;;5049694;28;37219;-86
2023/07/17 10:35:47;;;;;;;10.10;5.35;;;19.00;99.90;;;;;;5029517;28;48627;-88
2023/07/17 10:38:22;;;;;;;17.90;5.63;;;19.40;99.90;;;;;;5031751;28;37211;-89
2023/07/17 10:40:48;;;;;;;16.85;6.30;;;19.60;99.90;;;;;;5032332;28;38419;-88
2023/07/17 10:43:19;;;;;;;17.20;5.80;;;19.80;99.90;;;;;;5045156;28;36181;-87
2023/07/17 10:45:47;;;;;;;17.35;6.65;;;20.10;99.90;;;;;;5031340;28;38067;-90
2023/07/17 10:48:15;;;;;;;18.58;6.72;;;20.20;99.90;;;;;;5032002;28;38656;-85
2023/07/17 10:50:53;;;;;;;12.43;5.90;;;20.10;99.90;;;;;;5031374;28;38706;-84
2023/07/17 10:53:20;;;;;;;12.30;6.88;;;19.90;99.90;;;;;;5030214;28;37430;-86
2023/07/17 10:55:47;;;;;;;11.80;6.88;;;19.60;99.90;;;;;;5031093;28;37791;-86
2023/07/17 10:58:13;;;;;;;12.85;6.15;;;19.40;99.90;;;;;;5031713;28;38239;-85
2023/07/17 11:00:43;;;;;;;15.55;6.95;;;19.20;99.90;;;;;;5028933;28;38739;-85
2023/07/17 11:03:16;;;;;;;13.85;6.80;;;19.20;99.90;;;;;;5045756;28;36116;-86
2023/07/17 11:05:44;;;;;;;15.30;6.72;;;19.40;99.90;;;;;;5031694;28;38672;-85
2023/07/17 11:08:12;;;;;;;12.88;6.05;;;19.20;99.90;;;;;;5028359;28;37763;-87
2023/07/17 11:10:45;;;;;;;13.90;6.60;;;19.20;99.90;;;;;;5030037;28;38478;-85
2023/07/17 11:13:11;;;;;;;13.52;6.13;;;19.20;99.90;;;;;;5028384;28;38889;-85
2023/07/17 11:15:38;;;;;;;12.15;6.95;;;19.20;99.90;;;;;;5028132;28;37711;-86
2023/07/17 11:18:06;;;;;;;17.10;7.38;;;19.50;99.90;;;;;;5028608;28;38628;-82
2023/07/17 11:20:33;;;;;;;17.92;6.65;;;19.80;99.90;;;;;;5040776;28;38208;-83
2023/07/17 11:22:59;;;;;;;14.52;6.28;;;20.20;99.90;;;;;;5031522;28;37422;-83
2023/07/17 11:25:28;;;;;;;12.10;5.30;;;20.40;99.90;;;;;;5028867;28;37757;-83
2023/07/17 11:27:56;;;;;;;12.57;5.88;;;20.40;99.70;;;;;;5029899;28;37907;-83
2023/07/17 11:30:34;;;;;;;14.10;5.90;;;20.60;97.60;;;;;;5027997;28;36892;-85
2023/07/17 11:33:02;;;;;;;10.80;5.38;;;20.50;90.00;;;;;;5033825;28;37410;-82
2023/07/17 11:35:49;;;;;;;13.52;6.65;;;20.50;99.90;;;;;;5020873;28;48423;-84
2023/07/17 11:38:18;;;;;;;10.32;5.40;;;20.60;98.60;;;;;;5026692;28;39844;-82
2023/07/17 11:40:58;;;;;;;15.63;6.07;;;20.60;93.00;;;;;;5027940;28;37239;-83
2023/07/17 11:43:37;;;;;;;14.85;6.07;;;20.80;97.30;;;;;;5025731;28;36969;-81
2023/07/17 11:46:07;;;;;;;16.23;6.47;;;21.00;95.60;;;;;;5043903;28;37964;-81
2023/07/17 11:48:36;;;;;;;13.45;6.20;;;20.60;78.80;;;;;;5027528;28;37323;-80
2023/07/17 11:51:05;;;;;;;9.68;5.82;;;20.40;98.60;;;;;;5034994;28;37196;-81
2023/07/17 11:53:35;;;;;;;14.13;6.07;;;20.30;96.50;;;;;;5027108;28;36460;-81
2023/07/17 11:56:02;;;;;;;13.15;5.78;;;20.20;93.30;;;;;;5026444;28;38966;-81
2023/07/17 11:58:34;;;;;;;10.48;4.82;;;20.20;94.10;;;;;;5027156;28;47212;-81
2023/07/17 12:01:00;;;;;;;11.70;5.18;;;20.30;99.10;;;;;;5027789;28;37337;-81
2023/07/17 12:03:27;;;;;;;8.88;5.18;;;20.40;93.70;;;;;;5021362;28;48619;-81
2023/07/17 12:05:54;;;;;;;15.10;4.53;;;20.70;95.00;;;;;;5022207;28;38223;-80
2023/07/17 12:08:20;;;;;;;12.35;4.07;;;21.10;90.40;;;;;;5043981;28;37050;-82
2023/07/17 12:10:46;;;;;;;10.20;4.60;;;21.10;56.20;;;;;;5043406;28;38172;-80
2023/07/17 12:13:12;;;;;;;8.60;4.15;;;21.00;71.30;;;;;;5034942;28;36343;-82
2023/07/17 12:15:39;;;;;;;10.77;4.10;;;20.70;57.70;;;;;;5033034;28;39111;-75
2023/07/17 12:18:05;;;;;;;9.40;4.20;;;20.60;80.60;;;;;;5027264;28;39399;-81
2023/07/17 12:20:32;;;;;;;9.23;3.90;;;20.50;69.60;;;;;;5028709;28;36812;-80
2023/07/17 12:22:59;;;;;;;12.43;4.35;;;20.60;66.00;;;;;;5027918;28;36152;-81
2023/07/17 12:25:25;;;;;;;8.52;4.00;;;20.80;56.20;;;;;;5027312;28;40091;-80
2023/07/17 12:27:52;;;;;;;9.60;4.15;;;20.70;55.10;;;;;;5026958;28;38779;-80
2023/07/17 12:30:22;;;;;;;10.15;4.32;;;20.30;53.80;;;;;;5026763;28;39915;-80
2023/07/17 12:32:49;;;;;;;7.50;4.15;;;20.20;86.10;;;;;;5026512;28;37139;-80
2023/07/17 12:35:15;;;;;;;10.13;4.15;;;20.00;80.60;;;;;;5025218;28;39057;-81
2023/07/17 12:37:41;;;;;;;8.57;4.15;;;20.10;78.10;;;;;;5026754;28;39528;-81
2023/07/17 12:40:08;;;;;;;10.30;4.20;;;20.40;76.60;;;;;;5025939;28;36699;-80
2023/07/17 12:42:34;;;;;;;11.38;4.70;;;20.50;76.00;;;;;;5026778;28;37380;-79